sensor_id;sensor_type;location;lat;lon;timestamp;P1;durP1;ratioP1;P2;durP2;ratioP2
75593;SDS011;64176;49.156;7.810;2023-09-18T00:02:38;9.32;;;3.47;;
75593;SDS011;64176;49.156;7.810;2023-09-18T00:05:23;10.60;;;3.72;;
75593;SDS011;64176;49.156;7.810;2023-09-18T00:08:09;5.68;;;3.30;;
75593;SDS011;64176;49.156;7.810;2023-09-18T00:10:54;4.68;;;3.20;;
75593;SDS011;64176;49.156;7.810;2023-09-18T00:13:43;7.60;;;3.40;;
75593;SDS011;64176;49.156;7.810;2023-09-18T00:16:29;6.32;;;2.90;;
75593;SDS011;64176;49.156;7.810;2023-09-18T00:19:16;6.50;;;3.58;;
75593;SDS011;64176;49.156;7.810;2023-09-18T00:24:44;8.43;;;3.42;;
75593;SDS011;64176;49.156;7.810;2023-09-18T00:30:18;5.93;;;3.00;;
75593;SDS011;64176;49.156;7.810;2023-09-18T00:33:10;6.75;;;3.67;;
75593;SDS011;64176;49.156;7.810;2023-09-18T00:35:54;4.93;;;3.47;;
75593;SDS011;64176;49.156;7.810;2023-09-18T00:38:43;5.47;;;4.20;;
75593;SDS011;64176;49.156;7.810;2023-09-18T00:41:27;6.85;;;3.90;;
75593;SDS011;64176;49.156;7.810;2023-09-18T00:44:11;4.95;;;3.33;;
75593;SDS011;64176;49.156;7.810;2023-09-18T00:46:58;5.45;;;4.05;;
75593;SDS011;64176;49.156;7.810;2023-09-18T00:49:48;5.25;;;2.85;;
75593;SDS011;64176;49.156;7.810;2023-09-18T00:52:34;4.85;;;3.53;;
75593;SDS011;64176;49.156;7.810;2023-09-18T00:55:18;6.70;;;4.32;;
75593;SDS011;64176;49.156;7.810;2023-09-18T00:58:07;6.00;;;3.28;;
75593;SDS011;64176;49.156;7.810;2023-09-18T01:00:54;8.75;;;4.05;;
75593;SDS011;64176;49.156;7.810;2023-09-18T01:03:41;5.85;;;3.42;;
75593;SDS011;64176;49.156;7.810;2023-09-18T01:06:25;5.97;;;3.53;;
75593;SDS011;64176;49.156;7.810;2023-09-18T01:09:16;7.97;;;4.50;;
75593;SDS011;64176;49.156;7.810;2023-09-18T01:12:08;10.07;;;4.15;;
75593;SDS011;64176;49.156;7.810;2023-09-18T01:17:46;6.85;;;4.57;;
75593;SDS011;64176;49.156;7.810;2023-09-18T01:20:35;9.73;;;5.75;;
75593;SDS011;64176;49.156;7.810;2023-09-18T01:23:24;10.40;;;4.00;;
75593;SDS011;64176;49.156;7.810;2023-09-18T01:26:08;6.82;;;4.07;;
75593;SDS011;64176;49.156;7.810;2023-09-18T01:31:49;8.70;;;3.67;;
75593;SDS011;64176;49.156;7.810;2023-09-18T01:34:47;7.90;;;3.72;;
75593;SDS011;64176;49.156;7.810;2023-09-18T01:37:43;7.20;;;3.75;;
75593;SDS011;64176;49.156;7.810;2023-09-18T01:40:31;8.15;;;3.60;;
75593;SDS011;64176;49.156;7.810;2023-09-18T01:43:18;6.93;;;4.07;;
75593;SDS011;64176;49.156;7.810;2023-09-18T01:46:05;7.18;;;3.90;;
75593;SDS011;64176;49.156;7.810;2023-09-18T01:48:53;9.05;;;4.00;;
75593;SDS011;64176;49.156;7.810;2023-09-18T01:51:37;6.93;;;4.03;;
75593;SDS011;64176;49.156;7.810;2023-09-18T01:57:12;9.65;;;4.25;;
75593;SDS011;64176;49.156;7.810;2023-09-18T02:02:41;7.30;;;3.67;;
75593;SDS011;64176;49.156;7.810;2023-09-18T02:08:16;5.97;;;3.95;;
75593;SDS011;64176;49.156;7.810;2023-09-18T02:11:05;8.02;;;3.85;;
75593;SDS011;64176;49.156;7.810;2023-09-18T02:13:49;7.72;;;3.85;;
75593;SDS011;64176;49.156;7.810;2023-09-18T02:16:34;6.60;;;4.55;;
75593;SDS011;64176;49.156;7.810;2023-09-18T02:19:24;5.93;;;4.22;;
75593;SDS011;64176;49.156;7.810;2023-09-18T02:22:12;7.57;;;3.72;;
75593;SDS011;64176;49.156;7.810;2023-09-18T02:25:00;8.38;;;4.30;;
75593;SDS011;64176;49.156;7.810;2023-09-18T02:31:53;8.35;;;4.90;;
75593;SDS011;64176;49.156;7.810;2023-09-18T02:34:42;6.45;;;3.60;;
75593;SDS011;64176;49.156;7.810;2023-09-18T02:37:32;6.50;;;4.13;;
75593;SDS011;64176;49.156;7.810;2023-09-18T02:40:17;8.18;;;4.20;;
75593;SDS011;64176;49.156;7.810;2023-09-18T02:43:01;6.97;;;3.60;;
75593;SDS011;64176;49.156;7.810;2023-09-18T02:45:49;7.25;;;4.95;;
75593;SDS011;64176;49.156;7.810;2023-09-18T02:48:36;7.47;;;4.43;;
75593;SDS011;64176;49.156;7.810;2023-09-18T02:51:20;6.35;;;3.35;;
75593;SDS011;64176;49.156;7.810;2023-09-18T02:54:07;9.88;;;4.93;;
75593;SDS011;64176;49.156;7.810;2023-09-18T02:56:56;8.13;;;4.72;;
75593;SDS011;64176;49.156;7.810;2023-09-18T02:59:40;7.65;;;5.15;;
75593;SDS011;64176;49.156;7.810;2023-09-18T03:02:26;8.73;;;5.28;;
75593;SDS011;64176;49.156;7.810;2023-09-18T03:05:14;8.75;;;6.03;;
75593;SDS011;64176;49.156;7.810;2023-09-18T03:07:59;7.70;;;5.28;;
75593;SDS011;64176;49.156;7.810;2023-09-18T03:10:44;8.15;;;4.57;;
75593;SDS011;64176;49.156;7.810;2023-09-18T03:13:30;7.72;;;4.38;;
75593;SDS011;64176;49.156;7.810;2023-09-18T03:16:17;7.88;;;4.65;;
75593;SDS011;64176;49.156;7.810;2023-09-18T03:19:05;9.05;;;4.05;;
75593;SDS011;64176;49.156;7.810;2023-09-18T03:21:51;10.18;;;5.07;;
75593;SDS011;64176;49.156;7.810;2023-09-18T03:24:40;8.05;;;4.60;;
75593;SDS011;64176;49.156;7.810;2023-09-18T03:27:27;6.32;;;4.40;;
75593;SDS011;64176;49.156;7.810;2023-09-18T03:30:13;8.88;;;5.65;;
75593;SDS011;64176;49.156;7.810;2023-09-18T03:33:00;7.78;;;3.88;;
75593;SDS011;64176;49.156;7.810;2023-09-18T03:38:36;10.10;;;4.90;;
75593;SDS011;64176;49.156;7.810;2023-09-18T03:41:24;12.05;;;5.38;;
75593;SDS011;64176;49.156;7.810;2023-09-18T03:44:11;10.65;;;5.32;;
75593;SDS011;64176;49.156;7.810;2023-09-18T03:46:55;10.20;;;4.88;;
75593;SDS011;64176;49.156;7.810;2023-09-18T03:49:41;9.70;;;4.57;;
75593;SDS011;64176;49.156;7.810;2023-09-18T03:52:28;11.07;;;4.50;;
75593;SDS011;64176;49.156;7.810;2023-09-18T03:55:17;12.35;;;4.80;;
75593;SDS011;64176;49.156;7.810;2023-09-18T03:58:01;8.52;;;4.90;;
75593;SDS011;64176;49.156;7.810;2023-09-18T04:00:45;10.32;;;4.32;;
75593;SDS011;64176;49.156;7.810;2023-09-18T04:03:29;12.40;;;5.20;;
75593;SDS011;64176;49.156;7.810;2023-09-18T04:06:20;11.93;;;3.67;;
75593;SDS011;64176;49.156;7.810;2023-09-18T04:09:07;13.90;;;3.67;;
75593;SDS011;64176;49.156;7.810;2023-09-18T04:11:54;13.02;;;4.50;;
75593;SDS011;64176;49.156;7.810;2023-09-18T04:14:42;13.85;;;5.85;;
75593;SDS011;64176;49.156;7.810;2023-09-18T04:17:28;9.85;;;3.10;;
75593;SDS011;64176;49.156;7.810;2023-09-18T04:20:15;10.93;;;3.85;;
75593;SDS011;64176;49.156;7.810;2023-09-18T04:26:15;15.82;;;3.63;;
75593;SDS011;64176;49.156;7.810;2023-09-18T04:29:06;13.57;;;3.85;;
75593;SDS011;64176;49.156;7.810;2023-09-18T04:31:50;9.25;;;3.55;;
75593;SDS011;64176;49.156;7.810;2023-09-18T04:34:37;14.20;;;4.63;;
75593;SDS011;64176;49.156;7.810;2023-09-18T04:40:10;15.15;;;3.45;;
75593;SDS011;64176;49.156;7.810;2023-09-18T04:42:55;8.27;;;3.65;;
75593;SDS011;64176;49.156;7.810;2023-09-18T04:45:42;10.40;;;3.75;;
75593;SDS011;64176;49.156;7.810;2023-09-18T04:48:28;10.10;;;3.97;;
75593;SDS011;64176;49.156;7.810;2023-09-18T04:53:59;12.95;;;4.18;;
75593;SDS011;64176;49.156;7.810;2023-09-18T04:56:48;17.30;;;3.70;;
75593;SDS011;64176;49.156;7.810;2023-09-18T04:59:32;10.93;;;4.00;;
75593;SDS011;64176;49.156;7.810;2023-09-18T05:02:19;8.65;;;3.45;;
75593;SDS011;64176;49.156;7.810;2023-09-18T05:05:03;10.48;;;4.47;;
75593;SDS011;64176;49.156;7.810;2023-09-18T05:07:50;13.95;;;3.50;;
75593;SDS011;64176;49.156;7.810;2023-09-18T05:10:37;11.18;;;3.90;;
75593;SDS011;64176;49.156;7.810;2023-09-18T05:13:24;11.23;;;3.90;;
75593;SDS011;64176;49.156;7.810;2023-09-18T05:16:08;13.27;;;4.55;;
75593;SDS011;64176;49.156;7.810;2023-09-18T05:21:38;8.45;;;3.70;;
75593;SDS011;64176;49.156;7.810;2023-09-18T05:24:22;11.15;;;4.53;;
75593;SDS011;64176;49.156;7.810;2023-09-18T05:27:11;9.93;;;3.95;;
75593;SDS011;64176;49.156;7.810;2023-09-18T05:30:00;16.92;;;4.38;;
75593;SDS011;64176;49.156;7.810;2023-09-18T05:32:49;9.27;;;3.65;;
75593;SDS011;64176;49.156;7.810;2023-09-18T05:35:37;10.48;;;3.65;;
75593;SDS011;64176;49.156;7.810;2023-09-18T05:38:26;8.25;;;3.47;;
75593;SDS011;64176;49.156;7.810;2023-09-18T05:41:13;9.90;;;3.22;;
75593;SDS011;64176;49.156;7.810;2023-09-18T05:44:04;11.48;;;3.65;;
75593;SDS011;64176;49.156;7.810;2023-09-18T05:46:50;11.82;;;4.10;;
75593;SDS011;64176;49.156;7.810;2023-09-18T05:49:35;10.27;;;3.90;;
75593;SDS011;64176;49.156;7.810;2023-09-18T05:55:07;10.95;;;4.15;;
75593;SDS011;64176;49.156;7.810;2023-09-18T05:57:52;9.55;;;3.10;;
75593;SDS011;64176;49.156;7.810;2023-09-18T06:00:42;8.07;;;2.90;;
75593;SDS011;64176;49.156;7.810;2023-09-18T06:03:28;8.00;;;2.78;;
75593;SDS011;64176;49.156;7.810;2023-09-18T06:06:14;11.05;;;2.85;;
75593;SDS011;64176;49.156;7.810;2023-09-18T06:08:58;9.85;;;3.88;;
75593;SDS011;64176;49.156;7.810;2023-09-18T06:11:45;6.47;;;3.42;;
75593;SDS011;64176;49.156;7.810;2023-09-18T06:14:29;8.27;;;3.15;;
75593;SDS011;64176;49.156;7.810;2023-09-18T06:17:16;11.00;;;3.33;;
75593;SDS011;64176;49.156;7.810;2023-09-18T06:20:00;8.40;;;3.38;;
75593;SDS011;64176;49.156;7.810;2023-09-18T06:22:44;7.40;;;3.20;;
75593;SDS011;64176;49.156;7.810;2023-09-18T06:28:20;10.68;;;2.67;;
75593;SDS011;64176;49.156;7.810;2023-09-18T06:31:06;10.38;;;2.10;;
75593;SDS011;64176;49.156;7.810;2023-09-18T06:33:55;7.10;;;3.05;;
75593;SDS011;64176;49.156;7.810;2023-09-18T06:36:39;5.00;;;2.35;;
75593;SDS011;64176;49.156;7.810;2023-09-18T06:39:26;13.20;;;5.18;;
75593;SDS011;64176;49.156;7.810;2023-09-18T06:44:57;6.90;;;2.42;;
75593;SDS011;64176;49.156;7.810;2023-09-18T06:47:41;7.03;;;2.00;;
75593;SDS011;64176;49.156;7.810;2023-09-18T06:50:27;9.00;;;2.10;;
75593;SDS011;64176;49.156;7.810;2023-09-18T06:53:11;8.55;;;2.75;;
75593;SDS011;64176;49.156;7.810;2023-09-18T06:55:58;4.05;;;2.00;;
75593;SDS011;64176;49.156;7.810;2023-09-18T06:58:45;5.90;;;1.83;;
75593;SDS011;64176;49.156;7.810;2023-09-18T07:01:34;7.25;;;2.10;;
75593;SDS011;64176;49.156;7.810;2023-09-18T07:04:18;6.93;;;2.40;;
75593;SDS011;64176;49.156;7.810;2023-09-18T07:07:02;7.13;;;2.13;;
75593;SDS011;64176;49.156;7.810;2023-09-18T07:09:49;5.45;;;2.13;;
75593;SDS011;64176;49.156;7.810;2023-09-18T07:12:33;8.02;;;1.95;;
75593;SDS011;64176;49.156;7.810;2023-09-18T07:15:22;6.07;;;2.30;;
75593;SDS011;64176;49.156;7.810;2023-09-18T07:20:50;6.93;;;2.55;;
75593;SDS011;64176;49.156;7.810;2023-09-18T07:23:34;8.82;;;2.47;;
75593;SDS011;64176;49.156;7.810;2023-09-18T07:26:24;6.93;;;1.98;;
75593;SDS011;64176;49.156;7.810;2023-09-18T07:29:10;7.22;;;2.03;;
75593;SDS011;64176;49.156;7.810;2023-09-18T07:31:57;9.15;;;3.50;;
75593;SDS011;64176;49.156;7.810;2023-09-18T07:34:41;9.40;;;2.65;;
75593;SDS011;64176;49.156;7.810;2023-09-18T07:37:24;5.05;;;1.90;;
75593;SDS011;64176;49.156;7.810;2023-09-18T07:40:09;6.80;;;1.88;;
75593;SDS011;64176;49.156;7.810;2023-09-18T07:42:58;5.50;;;1.85;;
75593;SDS011;64176;49.156;7.810;2023-09-18T07:45:42;6.25;;;2.30;;
75593;SDS011;64176;49.156;7.810;2023-09-18T07:48:28;6.88;;;1.70;;
75593;SDS011;64176;49.156;7.810;2023-09-18T07:51:15;4.55;;;1.55;;
75593;SDS011;64176;49.156;7.810;2023-09-18T07:54:04;6.10;;;1.60;;
75593;SDS011;64176;49.156;7.810;2023-09-18T07:56:50;7.15;;;2.10;;
75593;SDS011;64176;49.156;7.810;2023-09-18T07:59:38;2.95;;;1.25;;
75593;SDS011;64176;49.156;7.810;2023-09-18T08:02:25;8.05;;;2.08;;
75593;SDS011;64176;49.156;7.810;2023-09-18T08:05:14;3.53;;;1.90;;
75593;SDS011;64176;49.156;7.810;2023-09-18T08:10:52;5.75;;;2.40;;
75593;SDS011;64176;49.156;7.810;2023-09-18T08:13:39;5.38;;;2.00;;
75593;SDS011;64176;49.156;7.810;2023-09-18T08:16:26;9.50;;;1.92;;
75593;SDS011;64176;49.156;7.810;2023-09-18T08:19:16;8.85;;;1.65;;
75593;SDS011;64176;49.156;7.810;2023-09-18T08:22:05;6.53;;;1.58;;
75593;SDS011;64176;49.156;7.810;2023-09-18T08:24:49;4.57;;;1.75;;
75593;SDS011;64176;49.156;7.810;2023-09-18T08:27:39;3.92;;;1.35;;
75593;SDS011;64176;49.156;7.810;2023-09-18T08:30:28;3.85;;;1.65;;
75593;SDS011;64176;49.156;7.810;2023-09-18T08:33:16;6.43;;;2.30;;
75593;SDS011;64176;49.156;7.810;2023-09-18T08:36:00;3.42;;;1.73;;
75593;SDS011;64176;49.156;7.810;2023-09-18T08:41:33;4.82;;;1.35;;
75593;SDS011;64176;49.156;7.810;2023-09-18T08:44:31;6.25;;;1.80;;
75593;SDS011;64176;49.156;7.810;2023-09-18T08:47:15;3.28;;;1.25;;
75593;SDS011;64176;49.156;7.810;2023-09-18T08:50:07;3.50;;;1.40;;
75593;SDS011;64176;49.156;7.810;2023-09-18T08:52:55;4.50;;;1.75;;
75593;SDS011;64176;49.156;7.810;2023-09-18T08:55:40;7.18;;;1.30;;
75593;SDS011;64176;49.156;7.810;2023-09-18T08:58:31;3.63;;;1.25;;
75593;SDS011;64176;49.156;7.810;2023-09-18T09:01:20;3.08;;;1.65;;
75593;SDS011;64176;49.156;7.810;2023-09-18T09:04:07;3.65;;;1.40;;
75593;SDS011;64176;49.156;7.810;2023-09-18T09:06:54;4.03;;;1.20;;
75593;SDS011;64176;49.156;7.810;2023-09-18T09:09:42;3.75;;;1.48;;
75593;SDS011;64176;49.156;7.810;2023-09-18T09:12:48;8.93;;;1.50;;
75593;SDS011;64176;49.156;7.810;2023-09-18T09:15:45;3.78;;;1.30;;
75593;SDS011;64176;49.156;7.810;2023-09-18T09:18:33;5.60;;;1.20;;
75593;SDS011;64176;49.156;7.810;2023-09-18T09:21:17;2.28;;;1.20;;
75593;SDS011;64176;49.156;7.810;2023-09-18T09:24:09;4.18;;;1.10;;
75593;SDS011;64176;49.156;7.810;2023-09-18T09:27:03;5.03;;;1.63;;
75593;SDS011;64176;49.156;7.810;2023-09-18T09:29:59;4.82;;;1.40;;
75593;SDS011;64176;49.156;7.810;2023-09-18T09:32:52;3.22;;;1.10;;
75593;SDS011;64176;49.156;7.810;2023-09-18T09:35:40;4.88;;;1.23;;
75593;SDS011;64176;49.156;7.810;2023-09-18T09:38:34;2.63;;;1.40;;
75593;SDS011;64176;49.156;7.810;2023-09-18T09:44:07;4.03;;;1.30;;
75593;SDS011;64176;49.156;7.810;2023-09-18T09:46:51;3.60;;;1.40;;
75593;SDS011;64176;49.156;7.810;2023-09-18T09:49:45;2.83;;;1.08;;
75593;SDS011;64176;49.156;7.810;2023-09-18T09:52:32;4.18;;;1.38;;
75593;SDS011;64176;49.156;7.810;2023-09-18T09:55:18;2.95;;;1.35;;
75593;SDS011;64176;49.156;7.810;2023-09-18T09:58:08;7.13;;;1.80;;
75593;SDS011;64176;49.156;7.810;2023-09-18T10:00:54;4.13;;;1.98;;
75593;SDS011;64176;49.156;7.810;2023-09-18T10:03:46;3.65;;;1.30;;
75593;SDS011;64176;49.156;7.810;2023-09-18T10:06:33;6.40;;;1.40;;
75593;SDS011;64176;49.156;7.810;2023-09-18T10:09:23;4.70;;;1.85;;
75593;SDS011;64176;49.156;7.810;2023-09-18T10:12:14;5.13;;;1.20;;
75593;SDS011;64176;49.156;7.810;2023-09-18T10:15:06;3.28;;;1.45;;
75593;SDS011;64176;49.156;7.810;2023-09-18T10:17:56;3.60;;;1.38;;
75593;SDS011;64176;49.156;7.810;2023-09-18T10:20:46;4.15;;;1.33;;
75593;SDS011;64176;49.156;7.810;2023-09-18T10:23:45;4.55;;;1.58;;
75593;SDS011;64176;49.156;7.810;2023-09-18T10:26:51;5.40;;;1.60;;
75593;SDS011;64176;49.156;7.810;2023-09-18T10:29:40;4.85;;;1.42;;
75593;SDS011;64176;49.156;7.810;2023-09-18T10:32:25;3.72;;;1.55;;
75593;SDS011;64176;49.156;7.810;2023-09-18T10:35:15;4.50;;;1.27;;
75593;SDS011;64176;49.156;7.810;2023-09-18T10:38:02;2.95;;;1.70;;
75593;SDS011;64176;49.156;7.810;2023-09-18T10:40:51;2.65;;;1.20;;
75593;SDS011;64176;49.156;7.810;2023-09-18T10:43:37;3.03;;;1.27;;
75593;SDS011;64176;49.156;7.810;2023-09-18T10:49:12;2.42;;;1.35;;
75593;SDS011;64176;49.156;7.810;2023-09-18T10:51:59;4.15;;;1.20;;
75593;SDS011;64176;49.156;7.810;2023-09-18T10:54:44;3.85;;;1.42;;
75593;SDS011;64176;49.156;7.810;2023-09-18T10:57:34;6.35;;;1.42;;
75593;SDS011;64176;49.156;7.810;2023-09-18T11:00:25;5.90;;;1.48;;
75593;SDS011;64176;49.156;7.810;2023-09-18T11:03:14;4.32;;;1.30;;
75593;SDS011;64176;49.156;7.810;2023-09-18T11:06:06;4.57;;;1.52;;
75593;SDS011;64176;49.156;7.810;2023-09-18T11:09:03;2.70;;;1.20;;
75593;SDS011;64176;49.156;7.810;2023-09-18T11:14:42;4.82;;;1.52;;
75593;SDS011;64176;49.156;7.810;2023-09-18T11:20:18;3.47;;;1.35;;
75593;SDS011;64176;49.156;7.810;2023-09-18T11:25:57;4.57;;;1.30;;
75593;SDS011;64176;49.156;7.810;2023-09-18T11:28:43;3.60;;;1.48;;
75593;SDS011;64176;49.156;7.810;2023-09-18T11:31:52;4.53;;;1.50;;
75593;SDS011;64176;49.156;7.810;2023-09-18T11:34:40;6.70;;;1.20;;
75593;SDS011;64176;49.156;7.810;2023-09-18T11:37:29;5.35;;;1.90;;
75593;SDS011;64176;49.156;7.810;2023-09-18T11:40:31;4.22;;;1.10;;
75593;SDS011;64176;49.156;7.810;2023-09-18T11:43:25;3.78;;;1.95;;
75593;SDS011;64176;49.156;7.810;2023-09-18T11:46:14;4.35;;;1.55;;
75593;SDS011;64176;49.156;7.810;2023-09-18T11:49:02;3.15;;;1.42;;
75593;SDS011;64176;49.156;7.810;2023-09-18T11:51:52;4.03;;;1.48;;
75593;SDS011;64176;49.156;7.810;2023-09-18T11:54:39;4.03;;;1.13;;
75593;SDS011;64176;49.156;7.810;2023-09-18T11:57:26;4.20;;;1.63;;
75593;SDS011;64176;49.156;7.810;2023-09-18T12:00:19;2.63;;;1.20;;
75593;SDS011;64176;49.156;7.810;2023-09-18T12:03:17;4.45;;;1.92;;
75593;SDS011;64176;49.156;7.810;2023-09-18T12:06:12;3.28;;;1.45;;
75593;SDS011;64176;49.156;7.810;2023-09-18T12:08:59;2.33;;;1.10;;
75593;SDS011;64176;49.156;7.810;2023-09-18T12:11:50;4.47;;;1.10;;
75593;SDS011;64176;49.156;7.810;2023-09-18T12:14:37;2.53;;;1.13;;
75593;SDS011;64176;49.156;7.810;2023-09-18T12:17:28;2.53;;;1.45;;
75593;SDS011;64176;49.156;7.810;2023-09-18T12:20:18;4.50;;;1.65;;
75593;SDS011;64176;49.156;7.810;2023-09-18T12:23:02;3.70;;;1.17;;
75593;SDS011;64176;49.156;7.810;2023-09-18T12:25:47;4.75;;;1.70;;
75593;SDS011;64176;49.156;7.810;2023-09-18T12:28:40;3.60;;;1.55;;
75593;SDS011;64176;49.156;7.810;2023-09-18T12:31:25;7.30;;;1.50;;
75593;SDS011;64176;49.156;7.810;2023-09-18T12:34:16;2.40;;;1.10;;
75593;SDS011;64176;49.156;7.810;2023-09-18T12:37:07;6.10;;;1.20;;
75593;SDS011;64176;49.156;7.810;2023-09-18T12:39:58;2.80;;;1.20;;
75593;SDS011;64176;49.156;7.810;2023-09-18T12:42:44;2.45;;;1.02;;
75593;SDS011;64176;49.156;7.810;2023-09-18T12:45:38;3.47;;;1.17;;
75593;SDS011;64176;49.156;7.810;2023-09-18T12:48:28;3.53;;;1.13;;
75593;SDS011;64176;49.156;7.810;2023-09-18T12:51:14;14.95;;;2.00;;
75593;SDS011;64176;49.156;7.810;2023-09-18T12:54:02;2.15;;;1.20;;
75593;SDS011;64176;49.156;7.810;2023-09-18T12:56:53;4.40;;;1.40;;
75593;SDS011;64176;49.156;7.810;2023-09-18T12:59:37;1.92;;;1.10;;
75593;SDS011;64176;49.156;7.810;2023-09-18T13:02:24;4.88;;;1.25;;
75593;SDS011;64176;49.156;7.810;2023-09-18T13:05:13;3.97;;;1.10;;
75593;SDS011;64176;49.156;7.810;2023-09-18T13:08:04;1.55;;;0.77;;
75593;SDS011;64176;49.156;7.810;2023-09-18T13:10:52;6.20;;;1.25;;
75593;SDS011;64176;49.156;7.810;2023-09-18T13:13:42;4.25;;;1.50;;
75593;SDS011;64176;49.156;7.810;2023-09-18T13:16:29;3.47;;;0.95;;
75593;SDS011;64176;49.156;7.810;2023-09-18T13:19:18;4.65;;;1.63;;
75593;SDS011;64176;49.156;7.810;2023-09-18T13:22:03;1.55;;;1.05;;
75593;SDS011;64176;49.156;7.810;2023-09-18T13:24:49;3.90;;;1.35;;
75593;SDS011;64176;49.156;7.810;2023-09-18T13:27:42;2.58;;;1.17;;
75593;SDS011;64176;49.156;7.810;2023-09-18T13:30:28;4.15;;;1.05;;
75593;SDS011;64176;49.156;7.810;2023-09-18T13:33:20;3.17;;;1.33;;
75593;SDS011;64176;49.156;7.810;2023-09-18T13:36:04;3.42;;;1.20;;
75593;SDS011;64176;49.156;7.810;2023-09-18T13:38:51;1.70;;;1.25;;
75593;SDS011;64176;49.156;7.810;2023-09-18T13:41:35;2.35;;;1.10;;
75593;SDS011;64176;49.156;7.810;2023-09-18T13:44:21;3.33;;;0.93;;
75593;SDS011;64176;49.156;7.810;2023-09-18T13:47:05;3.10;;;1.45;;
75593;SDS011;64176;49.156;7.810;2023-09-18T13:49:52;3.28;;;1.48;;
75593;SDS011;64176;49.156;7.810;2023-09-18T13:52:43;2.90;;;1.40;;
75593;SDS011;64176;49.156;7.810;2023-09-18T13:55:27;1.33;;;1.13;;
75593;SDS011;64176;49.156;7.810;2023-09-18T13:58:14;3.67;;;1.30;;
75593;SDS011;64176;49.156;7.810;2023-09-18T14:01:00;2.42;;;1.05;;
75593;SDS011;64176;49.156;7.810;2023-09-18T14:03:44;1.60;;;1.27;;
75593;SDS011;64176;49.156;7.810;2023-09-18T14:06:28;4.22;;;1.20;;
75593;SDS011;64176;49.156;7.810;2023-09-18T14:09:15;4.43;;;1.08;;
75593;SDS011;64176;49.156;7.810;2023-09-18T14:12:01;2.63;;;1.13;;
75593;SDS011;64176;49.156;7.810;2023-09-18T14:14:53;3.05;;;0.88;;
75593;SDS011;64176;49.156;7.810;2023-09-18T14:17:37;3.40;;;1.20;;
75593;SDS011;64176;49.156;7.810;2023-09-18T14:20:22;2.63;;;1.30;;
75593;SDS011;64176;49.156;7.810;2023-09-18T14:23:06;2.97;;;0.93;;
75593;SDS011;64176;49.156;7.810;2023-09-18T14:25:53;3.85;;;0.90;;
75593;SDS011;64176;49.156;7.810;2023-09-18T14:28:40;4.55;;;1.75;;
75593;SDS011;64176;49.156;7.810;2023-09-18T14:31:32;2.33;;;1.40;;
75593;SDS011;64176;49.156;7.810;2023-09-18T14:34:22;2.58;;;0.88;;
75593;SDS011;64176;49.156;7.810;2023-09-18T14:37:06;2.10;;;1.02;;
75593;SDS011;64176;49.156;7.810;2023-09-18T14:39:55;3.70;;;1.20;;
75593;SDS011;64176;49.156;7.810;2023-09-18T14:42:41;2.88;;;1.20;;
75593;SDS011;64176;49.156;7.810;2023-09-18T14:45:30;3.17;;;0.77;;
75593;SDS011;64176;49.156;7.810;2023-09-18T14:48:18;4.13;;;1.00;;
75593;SDS011;64176;49.156;7.810;2023-09-18T14:51:02;2.42;;;1.00;;
75593;SDS011;64176;49.156;7.810;2023-09-18T14:53:50;3.88;;;1.17;;
75593;SDS011;64176;49.156;7.810;2023-09-18T14:56:40;2.10;;;0.80;;
75593;SDS011;64176;49.156;7.810;2023-09-18T14:59:27;2.63;;;1.38;;
75593;SDS011;64176;49.156;7.810;2023-09-18T15:02:16;1.70;;;1.00;;
75593;SDS011;64176;49.156;7.810;2023-09-18T15:05:05;3.50;;;1.30;;
75593;SDS011;64176;49.156;7.810;2023-09-18T15:07:58;4.40;;;1.20;;
75593;SDS011;64176;49.156;7.810;2023-09-18T15:10:45;2.60;;;1.20;;
75593;SDS011;64176;49.156;7.810;2023-09-18T15:13:32;3.50;;;1.25;;
75593;SDS011;64176;49.156;7.810;2023-09-18T15:16:25;3.10;;;1.02;;
75593;SDS011;64176;49.156;7.810;2023-09-18T15:19:15;3.47;;;1.33;;
75593;SDS011;64176;49.156;7.810;2023-09-18T15:22:03;2.78;;;1.10;;
75593;SDS011;64176;49.156;7.810;2023-09-18T15:24:51;5.03;;;1.15;;
75593;SDS011;64176;49.156;7.810;2023-09-18T15:27:38;3.15;;;1.95;;
75593;SDS011;64176;49.156;7.810;2023-09-18T15:30:24;3.30;;;1.00;;
75593;SDS011;64176;49.156;7.810;2023-09-18T15:33:09;4.70;;;1.48;;
75593;SDS011;64176;49.156;7.810;2023-09-18T15:35:56;3.40;;;1.55;;
75593;SDS011;64176;49.156;7.810;2023-09-18T15:38:43;4.30;;;1.30;;
75593;SDS011;64176;49.156;7.810;2023-09-18T15:41:29;3.20;;;1.02;;
75593;SDS011;64176;49.156;7.810;2023-09-18T15:44:18;5.25;;;1.20;;
75593;SDS011;64176;49.156;7.810;2023-09-18T15:47:05;4.28;;;1.05;;
75593;SDS011;64176;49.156;7.810;2023-09-18T15:49:53;2.58;;;0.80;;
75593;SDS011;64176;49.156;7.810;2023-09-18T15:52:43;3.05;;;0.85;;
75593;SDS011;64176;49.156;7.810;2023-09-18T15:55:30;3.45;;;0.70;;
75593;SDS011;64176;49.156;7.810;2023-09-18T15:58:14;2.03;;;1.13;;
75593;SDS011;64176;49.156;7.810;2023-09-18T16:01:05;3.08;;;1.10;;
75593;SDS011;64176;49.156;7.810;2023-09-18T16:03:52;2.72;;;1.00;;
75593;SDS011;64176;49.156;7.810;2023-09-18T16:06:40;2.83;;;1.45;;
75593;SDS011;64176;49.156;7.810;2023-09-18T16:09:24;4.65;;;1.20;;
75593;SDS011;64176;49.156;7.810;2023-09-18T16:12:11;2.80;;;1.10;;
75593;SDS011;64176;49.156;7.810;2023-09-18T16:15:00;1.55;;;0.85;;
75593;SDS011;64176;49.156;7.810;2023-09-18T16:17:44;2.95;;;1.20;;
75593;SDS011;64176;49.156;7.810;2023-09-18T16:20:28;5.75;;;1.23;;
75593;SDS011;64176;49.156;7.810;2023-09-18T16:23:15;4.90;;;1.25;;
75593;SDS011;64176;49.156;7.810;2023-09-18T16:25:59;4.18;;;1.27;;
75593;SDS011;64176;49.156;7.810;2023-09-18T16:28:43;1.42;;;1.10;;
75593;SDS011;64176;49.156;7.810;2023-09-18T16:31:30;2.75;;;1.15;;
75593;SDS011;64176;49.156;7.810;2023-09-18T16:34:22;2.13;;;1.10;;
75593;SDS011;64176;49.156;7.810;2023-09-18T16:37:11;2.55;;;1.10;;
75593;SDS011;64176;49.156;7.810;2023-09-18T16:39:55;4.28;;;1.40;;
75593;SDS011;64176;49.156;7.810;2023-09-18T16:42:39;2.90;;;1.00;;
75593;SDS011;64176;49.156;7.810;2023-09-18T16:45:23;3.70;;;0.88;;
75593;SDS011;64176;49.156;7.810;2023-09-18T16:48:12;2.95;;;0.63;;
75593;SDS011;64176;49.156;7.810;2023-09-18T16:50:58;1.70;;;0.30;;
75593;SDS011;64176;49.156;7.810;2023-09-18T16:53:45;4.85;;;1.58;;
75593;SDS011;64176;49.156;7.810;2023-09-18T16:59:19;1.90;;;0.63;;
75593;SDS011;64176;49.156;7.810;2023-09-18T17:02:06;5.05;;;3.45;;
75593;SDS011;64176;49.156;7.810;2023-09-18T17:04:52;4.85;;;3.60;;
75593;SDS011;64176;49.156;7.810;2023-09-18T17:07:39;4.60;;;2.85;;
75593;SDS011;64176;49.156;7.810;2023-09-18T17:10:26;10.98;;;2.60;;
75593;SDS011;64176;49.156;7.810;2023-09-18T17:13:14;4.30;;;2.10;;
75593;SDS011;64176;49.156;7.810;2023-09-18T17:15:58;3.90;;;1.25;;
75593;SDS011;64176;49.156;7.810;2023-09-18T17:18:43;3.55;;;0.77;;
75593;SDS011;64176;49.156;7.810;2023-09-18T17:24:14;4.63;;;0.70;;
75593;SDS011;64176;49.156;7.810;2023-09-18T17:32:29;4.88;;;0.88;;
75593;SDS011;64176;49.156;7.810;2023-09-18T17:35:13;3.58;;;0.65;;
75593;SDS011;64176;49.156;7.810;2023-09-18T17:38:01;2.80;;;0.80;;
75593;SDS011;64176;49.156;7.810;2023-09-18T17:40:46;3.00;;;0.75;;
75593;SDS011;64176;49.156;7.810;2023-09-18T17:43:35;2.78;;;0.80;;
75593;SDS011;64176;49.156;7.810;2023-09-18T17:46:19;4.20;;;1.38;;
75593;SDS011;64176;49.156;7.810;2023-09-18T17:51:53;2.55;;;0.80;;
75593;SDS011;64176;49.156;7.810;2023-09-18T17:54:40;2.40;;;0.82;;
75593;SDS011;64176;49.156;7.810;2023-09-18T17:57:27;4.05;;;1.63;;
75593;SDS011;64176;49.156;7.810;2023-09-18T18:02:59;5.35;;;2.05;;
75593;SDS011;64176;49.156;7.810;2023-09-18T18:05:44;2.65;;;1.70;;
75593;SDS011;64176;49.156;7.810;2023-09-18T18:08:28;6.15;;;5.60;;
75593;SDS011;64176;49.156;7.810;2023-09-18T18:11:12;3.90;;;2.22;;
75593;SDS011;64176;49.156;7.810;2023-09-18T18:13:56;3.80;;;2.63;;